Time;durP1;ratioP1;P1;durP2;ratioP2;P2;SDS_P1;SDS_P2;PMS_P1;PMS_P2;Temp;Humidity;BMP_temperature;BMP_pressure;BME280_temperature;BME280_humidity;BME280_pressure;Samples;Min_cycle;Max_cycle;Signal;HPM_P1;HPM_P2
2021/11/17 02:28:28;;;;;;;8.07;6.80;;;5.60;99.90;;;;;;5015383;28;20497;-71
2021/11/17 02:31:08;;;;;;;8.57;6.10;;;5.60;99.90;;;;;;5012126;28;20430;-71
2021/11/17 02:33:49;;;;;;;7.10;5.53;;;5.70;99.90;;;;;;5014964;28;20478;-71
2021/11/17 02:36:32;;;;;;;10.47;5.07;;;5.60;99.90;;;;;;5019589;28;20395;-70
2021/11/17 02:39:23;;;;;;;8.07;5.83;;;5.60;99.90;;;;;;5019941;28;20423;-69
2021/11/17 02:41:55;;;;;;;13.50;5.83;;;5.60;99.90;;;;;;5020242;28;20431;-72
2021/11/17 02:44:26;;;;;;;6.43;3.63;;;5.70;99.90;;;;;;5015560;28;20410;-71
2021/11/17 02:47:09;;;;;;;9.37;5.27;;;5.60;99.90;;;;;;5014120;28;20398;-71
2021/11/17 02:49:57;;;;;;;6.33;5.13;;;5.60;99.90;;;;;;5014329;28;20598;-70
2021/11/17 02:52:35;;;;;;;9.30;5.73;;;5.60;99.90;;;;;;5012421;28;20438;-72
2021/11/17 02:55:19;;;;;;;5.23;4.03;;;5.60;99.90;;;;;;5014405;28;20522;-72
2021/11/17 02:58:22;;;;;;;7.87;4.83;;;5.60;99.90;;;;;;5013950;28;20435;-72
2021/11/17 03:01:50;;;;;;;8.37;5.63;;;5.60;99.90;;;;;;5013955;28;20430;-70
2021/11/17 03:04:41;;;;;;;5.27;3.73;;;5.60;99.90;;;;;;4976071;28;20498;-72
2021/11/17 03:07:27;;;;;;;7.13;4.60;;;5.50;99.90;;;;;;4993052;28;20463;-70
2021/11/17 03:10:17;;;;;;;12.77;6.37;;;5.50;99.90;;;;;;5010901;28;20530;-71
2021/11/17 03:12:52;;;;;;;9.53;4.20;;;5.50;99.90;;;;;;5013994;28;20407;-72
2021/11/17 03:15:34;;;;;;;11.93;5.70;;;5.50;99.90;;;;;;5014332;28;20403;-71
2021/11/17 03:18:27;;;;;;;11.40;5.43;;;5.50;99.90;;;;;;5014362;28;20414;-72
2021/11/17 03:21:08;;;;;;;5.53;3.00;;;5.50;99.90;;;;;;5015848;28;20463;-72
2021/11/17 03:23:53;;;;;;;8.63;4.37;;;5.50;99.90;;;;;;5013708;28;20441;-72
2021/11/17 03:27:09;;;;;;;5.30;4.47;;;5.60;99.90;;;;;;5024186;28;20952;-71
2021/11/17 03:29:34;;;;;;;5.60;4.00;;;5.60;99.90;;;;;;5015830;28;20466;-71
2021/11/17 03:32:25;;;;;;;4.27;3.87;;;5.50;99.90;;;;;;5033461;28;20503;-71
2021/11/17 03:35:19;;;;;;;4.87;3.20;;;5.50;99.90;;;;;;5033956;28;20174;-71
2021/11/17 03:37:50;;;;;;;4.10;2.70;;;5.60;99.90;;;;;;5033650;28;20498;-70
2021/11/17 03:40:39;;;;;;;5.67;3.80;;;5.50;99.90;;;;;;5036103;28;20422;-72
2021/11/17 03:43:28;;;;;;;8.47;5.10;;;5.40;99.90;;;;;;5029598;28;20425;-70
2021/11/17 03:46:35;;;;;;;5.07;3.80;;;5.50;99.90;;;;;;5033381;28;20418;-72
2021/11/17 03:49:23;;;;;;;4.13;3.73;;;5.50;99.90;;;;;;5021034;28;20800;-70
2021/11/17 03:52:22;;;;;;;5.03;2.80;;;5.50;99.90;;;;;;5032746;28;20414;-70
2021/11/17 03:55:01;;;;;;;6.37;4.83;;;5.40;99.90;;;;;;5033228;28;20406;-72
2021/11/17 03:57:54;;;;;;;5.30;4.07;;;5.40;99.90;;;;;;5033134;28;20414;-71
2021/11/17 04:00:58;;;;;;;3.23;2.77;;;5.40;99.90;;;;;;5015604;28;20430;-72
2021/11/17 04:04:04;;;;;;;3.93;2.73;;;5.40;99.90;;;;;;5033011;28;20414;-73
2021/11/17 04:06:44;;;;;;;4.97;3.30;;;5.40;99.90;;;;;;5033189;28;20398;-73
2021/11/17 04:09:31;;;;;;;4.10;2.40;;;5.40;99.90;;;;;;5033091;28;20822;-72
2021/11/17 04:12:11;;;;;;;4.27;3.83;;;5.50;99.90;;;;;;5033073;28;20472;-72
2021/11/17 04:14:53;;;;;;;3.37;3.07;;;5.40;99.90;;;;;;5032054;28;20415;-71
2021/11/17 04:17:54;;;;;;;5.30;3.60;;;5.50;99.90;;;;;;5033158;28;20406;-72
2021/11/17 04:20:49;;;;;;;5.40;3.77;;;5.40;99.90;;;;;;5028658;28;20525;-72
2021/11/17 04:23:29;;;;;;;5.30;3.30;;;5.40;99.90;;;;;;5031627;28;20403;-71
2021/11/17 04:26:25;;;;;;;3.70;3.10;;;5.40;99.90;;;;;;5036298;28;20414;-71
2021/11/17 04:29:15;;;;;;;5.40;2.70;;;5.40;99.90;;;;;;5035203;28;20453;-71
2021/11/17 04:32:10;;;;;;;5.47;3.33;;;5.40;99.90;;;;;;5036082;28;20834;-71
2021/11/17 04:34:54;;;;;;;5.53;4.20;;;5.30;99.90;;;;;;5036105;28;20414;-70
2021/11/17 04:37:35;;;;;;;8.37;2.70;;;5.30;99.90;;;;;;5036260;28;20473;-71
2021/11/17 04:40:13;;;;;;;3.30;2.60;;;5.30;99.90;;;;;;5035774;28;20430;-72
2021/11/17 04:42:52;;;;;;;3.13;2.80;;;5.30;99.90;;;;;;5036542;28;20406;-72
2021/11/17 04:45:32;;;;;;;2.80;1.87;;;5.30;99.90;;;;;;5037068;28;20878;-72
2021/11/17 04:48:14;;;;;;;3.57;2.63;;;5.20;99.90;;;;;;5034625;28;20442;-72
2021/11/17 04:50:49;;;;;;;3.40;2.80;;;5.20;99.90;;;;;;5035439;28;20446;-71
2021/11/17 04:53:36;;;;;;;4.60;2.57;;;5.10;99.90;;;;;;5036443;28;20690;-71
2021/11/17 04:56:30;;;;;;;3.30;3.10;;;5.20;99.90;;;;;;5035842;28;20445;-72
2021/11/17 04:59:18;;;;;;;5.43;3.23;;;5.10;99.90;;;;;;5035791;28;20453;-71
2021/11/17 05:02:29;;;;;;;3.93;2.50;;;5.10;99.90;;;;;;5035981;28;20789;-73
2021/11/17 05:05:07;;;;;;;5.07;3.83;;;5.20;99.90;;;;;;5033604;28;20425;-71
2021/11/17 05:07:58;;;;;;;5.83;3.77;;;5.10;99.90;;;;;;5035252;28;20437;-70
2021/11/17 05:10:45;;;;;;;4.23;2.97;;;5.20;99.90;;;;;;5033449;28;20468;-71
2021/11/17 05:13:38;;;;;;;3.60;2.87;;;5.20;99.90;;;;;;5034878;28;20511;-70
2021/11/17 05:16:22;;;;;;;5.63;3.33;;;5.20;99.90;;;;;;5034754;28;20444;-70
2021/11/17 05:19:15;;;;;;;2.57;2.37;;;5.10;99.90;;;;;;5034676;28;20437;-71
2021/11/17 05:22:02;;;;;;;3.23;2.70;;;5.10;99.90;;;;;;5034616;28;20981;-71
2021/11/17 05:24:36;;;;;;;5.33;4.30;;;5.10;99.90;;;;;;5034491;28;20421;-71
2021/11/17 05:27:27;;;;;;;6.13;4.03;;;5.10;99.90;;;;;;5034680;28;20406;-72
2021/11/17 05:30:05;;;;;;;4.93;3.13;;;5.10;99.90;;;;;;5034160;28;20454;-71
2021/11/17 05:32:55;;;;;;;6.30;3.20;;;5.10;99.90;;;;;;5036066;28;20425;-71
2021/11/17 05:35:45;;;;;;;5.33;4.00;;;5.10;99.90;;;;;;5032564;28;20403;-71
2021/11/17 05:38:41;;;;;;;4.67;2.73;;;5.20;99.90;;;;;;5034257;28;20414;-70
2021/11/17 05:41:38;;;;;;;5.30;3.23;;;5.10;99.90;;;;;;5034557;28;20441;-71
2021/11/17 05:44:09;;;;;;;7.30;3.33;;;5.20;99.90;;;;;;5034075;28;20816;-72
2021/11/17 05:46:51;;;;;;;8.30;4.80;;;5.10;99.90;;;;;;5034460;28;20410;-72
2021/11/17 05:49:54;;;;;;;5.80;3.67;;;5.10;99.90;;;;;;5034841;28;20883;-72
2021/11/17 05:52:44;;;;;;;4.27;3.87;;;5.10;99.90;;;;;;5034816;28;20406;-71
2021/11/17 05:55:28;;;;;;;8.20;4.77;;;5.20;99.90;;;;;;5028898;28;20775;-70
2021/11/17 05:58:09;;;;;;;4.57;3.10;;;5.10;99.90;;;;;;5033918;28;20452;-71
2021/11/17 06:01:06;;;;;;;3.87;2.80;;;5.10;99.90;;;;;;5033912;28;20414;-70
2021/11/17 06:03:53;;;;;;;3.70;3.40;;;5.10;99.90;;;;;;5034249;28;20827;-72
2021/11/17 06:06:18;;;;;;;3.40;3.10;;;5.10;99.90;;;;;;5033844;28;20399;-71
2021/11/17 06:08:44;;;;;;;4.50;2.77;;;5.10;99.90;;;;;;5033893;28;20871;-72
2021/11/17 06:11:09;;;;;;;10.20;4.03;;;5.10;99.90;;;;;;5033955;28;20182;-71
2021/11/17 06:13:35;;;;;;;4.13;3.57;;;5.10;99.90;;;;;;5033393;28;20642;-70
2021/11/17 06:16:02;;;;;;;4.23;2.80;;;5.10;99.90;;;;;;5034150;28;20282;-71
2021/11/17 06:18:30;;;;;;;8.03;3.23;;;5.10;99.90;;;;;;5033678;28;20179;-71
2021/11/17 06:20:57;;;;;;;5.43;3.60;;;5.10;99.90;;;;;;5034382;28;20465;-71
2021/11/17 06:23:28;;;;;;;5.00;2.60;;;5.10;99.90;;;;;;5032682;28;20842;-72
2021/11/17 06:25:55;;;;;;;4.33;3.13;;;5.10;99.90;;;;;;5034313;28;20402;-71
2021/11/17 06:28:24;;;;;;;5.67;4.30;;;5.10;99.90;;;;;;5035298;28;20967;-72
2021/11/17 06:30:52;;;;;;;4.70;3.37;;;5.10;99.90;;;;;;5031081;28;20964;-72
2021/11/17 06:33:18;;;;;;;4.13;3.80;;;5.10;99.90;;;;;;5032619;28;20525;-71
2021/11/17 06:35:47;;;;;;;7.10;3.17;;;5.10;99.90;;;;;;5014651;28;20411;-72
2021/11/17 06:38:13;;;;;;;7.07;3.73;;;5.00;99.90;;;;;;5021067;28;20470;-71
2021/11/17 06:40:43;;;;;;;5.33;4.80;;;5.00;99.90;;;;;;5019775;28;20534;-72
2021/11/17 06:43:10;;;;;;;5.70;3.87;;;4.90;99.90;;;;;;5018175;28;20415;-70
2021/11/17 06:45:41;;;;;;;6.40;3.50;;;5.00;99.90;;;;;;5012018;28;20446;-70
2021/11/17 06:48:08;;;;;;;4.40;4.00;;;5.00;99.90;;;;;;5015099;28;20981;-73
2021/11/17 06:50:35;;;;;;;4.00;3.07;;;5.00;99.90;;;;;;5013518;28;20431;-74
2021/11/17 06:53:01;;;;;;;4.73;3.00;;;5.00;99.90;;;;;;5013850;28;20502;-70
2021/11/17 06:55:27;;;;;;;6.20;3.43;;;5.00;99.90;;;;;;5013098;28;20420;-71
2021/11/17 06:57:53;;;;;;;6.27;3.77;;;5.10;99.90;;;;;;5014012;28;20179;-69
2021/11/17 07:00:21;;;;;;;4.83;4.33;;;5.10;99.90;;;;;;5013111;28;20435;-70
2021/11/17 07:02:47;;;;;;;5.03;4.57;;;5.10;99.90;;;;;;5013127;28;20183;-69
2021/11/17 07:05:14;;;;;;;7.90;4.87;;;5.10;99.90;;;;;;5012433;28;20423;-69
2021/11/17 07:07:39;;;;;;;7.33;4.50;;;5.00;99.90;;;;;;5012301;28;20207;-69
2021/11/17 07:10:07;;;;;;;6.77;3.30;;;5.10;99.90;;;;;;5012092;28;20545;-69
2021/11/17 07:12:43;;;;;;;6.13;3.90;;;5.10;99.90;;;;;;5012343;28;20533;-70
2021/11/17 07:15:15;;;;;;;11.73;4.67;;;5.10;99.90;;;;;;5012107;28;20414;-68
2021/11/17 07:17:41;;;;;;;9.60;4.20;;;5.00;99.90;;;;;;5012079;28;20571;-71
2021/11/17 07:20:09;;;;;;;8.83;4.30;;;5.00;99.90;;;;;;5025173;28;20446;-70
2021/11/17 07:22:35;;;;;;;7.57;4.03;;;5.10;99.90;;;;;;5031880;28;20505;-70
2021/11/17 07:25:00;;;;;;;6.30;3.90;;;5.10;99.90;;;;;;5031831;28;20476;-68
2021/11/17 07:27:26;;;;;;;4.97;4.20;;;5.00;99.90;;;;;;5032007;28;20229;-68
2021/11/17 07:29:56;;;;;;;8.23;3.57;;;5.10;99.90;;;;;;5031340;28;20235;-68
2021/11/17 07:32:26;;;;;;;6.77;4.40;;;5.10;99.90;;;;;;5031808;28;20651;-68
2021/11/17 07:34:52;;;;;;;8.10;5.30;;;5.20;99.90;;;;;;5031564;28;20409;-69
2021/11/17 07:37:21;;;;;;;6.67;4.50;;;5.10;99.90;;;;;;5031579;28;20402;-69
2021/11/17 07:39:47;;;;;;;5.60;4.13;;;5.20;99.90;;;;;;5030353;28;20238;-68
2021/11/17 07:42:12;;;;;;;6.57;3.77;;;5.20;99.90;;;;;;5031837;28;20414;-69
2021/11/17 07:44:39;;;;;;;5.03;3.77;;;5.20;99.90;;;;;;5031655;28;20187;-68
2021/11/17 07:47:05;;;;;;;9.13;5.10;;;5.20;99.90;;;;;;5031744;28;20210;-69
2021/11/17 07:49:33;;;;;;;5.47;3.00;;;5.20;99.90;;;;;;5030329;28;20461;-69
2021/11/17 07:52:02;;;;;;;4.50;2.90;;;5.20;99.90;;;;;;5032198;28;20913;-70
2021/11/17 07:54:30;;;;;;;10.67;5.37;;;5.20;99.90;;;;;;5031771;28;20430;-69
2021/11/17 07:56:58;;;;;;;3.83;2.53;;;5.20;99.90;;;;;;5031741;28;20406;-70
2021/11/17 07:59:28;;;;;;;14.57;5.83;;;5.30;99.90;;;;;;5034900;28;20471;-70
2021/11/17 08:01:56;;;;;;;11.13;4.23;;;5.30;99.90;;;;;;5032449;28;20929;-70
2021/11/17 08:04:23;;;;;;;8.13;5.53;;;5.20;99.90;;;;;;5021340;28;20429;-71
2021/11/17 08:06:51;;;;;;;6.00;3.00;;;5.20;99.90;;;;;;5035624;28;20459;-70
2021/11/17 08:09:19;;;;;;;10.10;5.00;;;5.40;99.90;;;;;;5035239;28;20500;-69
2021/11/17 08:11:49;;;;;;;10.20;5.47;;;5.40;99.90;;;;;;5035451;28;20817;-69
2021/11/17 08:14:14;;;;;;;5.90;4.10;;;5.30;99.90;;;;;;5035067;28;20405;-69
2021/11/17 08:16:41;;;;;;;5.47;3.00;;;5.40;99.90;;;;;;5035068;28;20402;-70
2021/11/17 08:19:09;;;;;;;5.07;2.90;;;5.30;99.90;;;;;;5035234;28;20211;-69
2021/11/17 08:21:35;;;;;;;5.20;4.27;;;5.30;99.90;;;;;;5035249;28;20456;-69
2021/11/17 08:24:01;;;;;;;4.30;3.90;;;5.30;99.90;;;;;;5034985;28;20401;-71
2021/11/17 08:26:33;;;;;;;6.87;3.07;;;5.20;99.90;;;;;;5035218;28;20210;-70
2021/11/17 08:29:02;;;;;;;9.23;4.10;;;5.40;99.90;;;;;;5034068;28;20461;-72
2021/11/17 08:31:27;;;;;;;4.93;3.33;;;5.40;99.90;;;;;;5034844;28;20446;-69
2021/11/17 08:33:56;;;;;;;8.20;4.73;;;5.40;99.90;;;;;;5034635;28;20816;-70
2021/11/17 08:36:22;;;;;;;6.10;3.37;;;5.40;99.90;;;;;;5034808;28;20251;-70
2021/11/17 08:38:50;;;;;;;8.27;3.90;;;5.30;99.90;;;;;;5032986;28;21046;-71
2021/11/17 08:41:16;;;;;;;8.00;4.90;;;5.30;99.90;;;;;;5034884;28;20418;-70
2021/11/17 08:43:45;;;;;;;6.63;5.70;;;5.30;99.90;;;;;;5027875;28;20418;-71
2021/11/17 08:46:11;;;;;;;6.50;4.37;;;5.30;99.90;;;;;;5030068;28;20411;-71
2021/11/17 08:48:46;;;;;;;7.73;4.10;;;5.40;99.90;;;;;;5034671;28;20455;-71
2021/11/17 08:51:21;;;;;;;5.63;4.43;;;5.30;99.90;;;;;;5033053;28;20402;-71
2021/11/17 08:53:48;;;;;;;6.23;4.70;;;5.30;99.90;;;;;;5018774;28;20472;-69
2021/11/17 08:56:42;;;;;;;6.17;4.50;;;5.30;99.90;;;;;;5014805;28;20412;-72
2021/11/17 08:59:08;;;;;;;3.97;3.40;;;5.40;99.90;;;;;;5008820;28;20443;-70
2021/11/17 09:01:35;;;;;;;5.93;4.00;;;5.40;99.90;;;;;;5014541;28;20981;-69
2021/11/17 09:04:05;;;;;;;5.70;3.27;;;5.40;99.90;;;;;;5014324;28;20177;-71
2021/11/17 09:06:31;;;;;;;6.20;3.63;;;5.40;99.90;;;;;;5025208;28;20835;-69
2021/11/17 09:09:00;;;;;;;5.67;3.53;;;5.30;99.90;;;;;;5033827;28;20489;-71
2021/11/17 09:11:26;;;;;;;5.37;3.90;;;5.30;99.90;;;;;;5034019;28;20414;-70
2021/11/17 09:13:51;;;;;;;3.90;3.10;;;5.40;99.90;;;;;;5034602;28;20455;-71
2021/11/17 09:16:17;;;;;;;6.20;4.13;;;5.40;99.90;;;;;;5034526;28;20254;-70
2021/11/17 09:18:43;;;;;;;13.63;4.27;;;5.50;99.90;;;;;;5034240;28;20278;-70
2021/11/17 09:21:20;;;;;;;7.90;5.17;;;5.40;99.90;;;;;;5034204;28;20172;-71
2021/11/17 09:23:55;;;;;;;4.70;4.00;;;5.40;99.90;;;;;;5025882;28;20427;-69
2021/11/17 09:26:22;;;;;;;7.60;4.73;;;5.40;99.90;;;;;;5014324;28;20403;-69
2021/11/17 09:28:49;;;;;;;9.40;5.30;;;5.40;99.90;;;;;;5026850;28;20457;-72
2021/11/17 09:31:15;;;;;;;7.03;4.83;;;5.50;99.90;;;;;;5034245;28;20431;-70
2021/11/17 09:33:41;;;;;;;6.60;4.20;;;5.60;99.90;;;;;;5024115;28;20502;-70
2021/11/17 09:36:08;;;;;;;4.70;3.87;;;5.60;99.90;;;;;;5014810;28;20483;-70
2021/11/17 09:38:40;;;;;;;5.37;3.90;;;5.50;99.90;;;;;;5016960;28;20427;-68
2021/11/17 09:41:16;;;;;;;6.10;2.90;;;5.50;99.90;;;;;;5013899;28;20419;-70
2021/11/17 09:43:48;;;;;;;7.03;4.33;;;5.50;99.90;;;;;;5013250;28;20418;-69
2021/11/17 09:46:29;;;;;;;8.13;4.03;;;5.60;99.90;;;;;;5012950;28;20468;-70
2021/11/17 09:48:59;;;;;;;5.07;4.57;;;5.50;99.90;;;;;;5012931;28;20457;-68
2021/11/17 09:51:30;;;;;;;7.40;3.47;;;5.50;99.90;;;;;;5013811;28;20403;-69
2021/11/17 09:54:19;;;;;;;4.80;3.47;;;5.60;99.90;;;;;;5013754;28;20404;-70
2021/11/17 09:56:59;;;;;;;8.17;5.03;;;5.60;99.90;;;;;;5013745;28;20861;-70
2021/11/17 09:59:33;;;;;;;7.03;4.90;;;5.60;99.90;;;;;;5032570;28;20902;-69
2021/11/17 10:02:09;;;;;;;5.57;4.03;;;5.60;99.90;;;;;;5033339;28;20418;-70
2021/11/17 10:04:46;;;;;;;4.03;3.50;;;5.60;99.90;;;;;;5033423;28;20434;-69
2021/11/17 10:07:35;;;;;;;5.30;3.93;;;5.70;99.90;;;;;;5033213;28;20897;-70
2021/11/17 10:10:21;;;;;;;5.37;3.50;;;5.60;99.90;;;;;;5032734;28;20465;-70
2021/11/17 10:13:02;;;;;;;5.70;3.33;;;5.60;99.90;;;;;;5033232;28;20412;-69
2021/11/17 10:15:35;;;;;;;9.77;4.57;;;5.70;99.90;;;;;;5035189;28;20916;-69
2021/11/17 10:18:31;;;;;;;14.60;4.80;;;5.70;99.90;;;;;;5052953;28;20414;-69
2021/11/17 10:21:09;;;;;;;7.33;4.70;;;5.70;99.90;;;;;;5052105;28;20460;-69
2021/11/17 10:23:43;;;;;;;6.60;4.27;;;5.80;99.90;;;;;;5053165;28;20413;-69
2021/11/17 10:26:17;;;;;;;4.20;3.80;;;5.80;99.90;;;;;;5052929;28;20463;-70
2021/11/17 10:28:48;;;;;;;6.10;3.53;;;5.80;99.90;;;;;;5051815;28;20452;-71
2021/11/17 10:31:31;;;;;;;3.97;3.27;;;5.90;99.90;;;;;;5050742;28;20398;-69
2021/11/17 10:34:10;;;;;;;4.20;3.20;;;5.90;99.90;;;;;;5032574;28;20518;-70
2021/11/17 10:36:46;;;;;;;6.93;4.13;;;5.80;99.90;;;;;;5032666;28;20410;-71
2021/11/17 10:39:14;;;;;;;4.20;3.80;;;5.90;99.90;;;;;;5031038;28;20438;-70
2021/11/17 10:41:55;;;;;;;5.97;4.50;;;5.90;99.90;;;;;;5032481;28;20501;-69
2021/11/17 10:44:43;;;;;;;4.23;3.20;;;5.90;99.90;;;;;;5032245;28;20402;-69
2021/11/17 10:47:12;;;;;;;5.70;3.60;;;5.90;99.90;;;;;;5032791;28;20517;-69
2021/11/17 10:49:42;;;;;;;5.07;3.20;;;5.80;99.90;;;;;;5032193;28;20545;-70
2021/11/17 10:52:12;;;;;;;4.47;3.57;;;5.80;99.90;;;;;;5032327;28;20410;-69
2021/11/17 10:54:48;;;;;;;8.67;4.20;;;5.90;99.90;;;;;;5031985;28;20468;-71
2021/11/17 10:57:20;;;;;;;5.47;3.17;;;5.90;99.90;;;;;;5032221;28;20412;-70
2021/11/17 10:59:46;;;;;;;5.53;3.50;;;5.90;99.90;;;;;;5030469;28;20438;-69
2021/11/17 11:02:12;;;;;;;6.30;3.33;;;6.00;99.90;;;;;;5032137;28;20772;-69
2021/11/17 11:04:46;;;;;;;4.90;3.80;;;5.90;99.90;;;;;;5032045;28;20902;-68
2021/11/17 11:07:25;;;;;;;4.23;2.90;;;5.90;99.90;;;;;;5031975;28;20402;-70
2021/11/17 11:10:11;;;;;;;7.03;4.00;;;5.90;99.90;;;;;;5032126;28;20464;-68
2021/11/17 11:12:38;;;;;;;6.40;2.53;;;6.00;99.90;;;;;;5032034;28;20398;-67
2021/11/17 11:15:18;;;;;;;9.97;4.73;;;6.10;99.90;;;;;;5031844;28;20940;-68
2021/11/17 11:18:06;;;;;;;6.73;3.33;;;6.00;99.90;;;;;;5032390;28;20402;-68
2021/11/17 11:20:44;;;;;;;4.37;3.97;;;6.00;99.90;;;;;;5030173;28;20441;-69
2021/11/17 11:23:20;;;;;;;4.67;4.03;;;6.00;99.90;;;;;;5031259;28;20399;-67
2021/11/17 11:26:07;;;;;;;5.93;3.67;;;6.00;99.90;;;;;;5031023;28;20394;-67
2021/11/17 11:28:46;;;;;;;7.50;2.80;;;6.00;99.90;;;;;;5031556;28;20452;-68
2021/11/17 11:31:12;;;;;;;8.17;3.67;;;6.00;99.90;;;;;;5031780;28;20410;-68
2021/11/17 11:33:48;;;;;;;8.23;4.93;;;6.00;99.90;;;;;;5036224;28;20418;-67
2021/11/17 11:36:14;;;;;;;9.57;6.13;;;6.00;99.90;;;;;;5038508;28;20179;-67
2021/11/17 11:38:44;;;;;;;3.50;2.77;;;5.90;99.90;;;;;;5038281;28;20523;-69
2021/11/17 11:41:37;;;;;;;6.87;4.13;;;6.00;99.90;;;;;;5038576;28;20175;-69
2021/11/17 11:44:20;;;;;;;5.00;3.40;;;5.90;99.90;;;;;;5038512;28;20410;-69
2021/11/17 11:46:58;;;;;;;5.90;3.27;;;6.00;99.90;;;;;;5038603;28;20405;-69
2021/11/17 11:49:38;;;;;;;6.80;4.03;;;5.90;99.90;;;;;;5038396;28;20457;-70
2021/11/17 11:52:10;;;;;;;6.20;2.63;;;5.90;99.90;;;;;;5038672;28;20406;-70
2021/11/17 11:54:55;;;;;;;4.73;3.07;;;5.90;99.90;;;;;;5038216;28;20417;-69
2021/11/17 11:57:42;;;;;;;5.87;3.40;;;5.90;99.90;;;;;;5038157;28;20785;-70
2021/11/17 12:00:31;;;;;;;4.10;2.90;;;5.90;99.90;;;;;;5038110;28;20437;-70
2021/11/17 12:02:58;;;;;;;6.27;4.00;;;5.90;99.90;;;;;;5038570;28;20803;-70
2021/11/17 12:05:32;;;;;;;6.50;4.17;;;5.90;99.90;;;;;;5038168;28;20413;-70
2021/11/17 12:08:16;;;;;;;5.70;3.40;;;6.00;99.90;;;;;;5038266;28;20424;-71
2021/11/17 12:10:50;;;;;;;6.80;3.57;;;5.90;99.90;;;;;;5038054;28;20898;-70
2021/11/17 12:13:23;;;;;;;6.13;3.70;;;6.00;99.90;;;;;;5038014;28;20768;-70
2021/11/17 12:16:08;;;;;;;6.43;3.50;;;5.90;99.90;;;;;;5038345;28;20453;-70
2021/11/17 12:19:00;;;;;;;6.93;3.77;;;5.90;99.90;;;;;;5037592;28;20591;-70
2021/11/17 12:21:40;;;;;;;8.40;4.20;;;5.90;99.90;;;;;;5038142;28;20413;-69
2021/11/17 12:24:08;;;;;;;14.17;3.40;;;5.80;99.90;;;;;;5038018;28;20406;-69
2021/11/17 12:26:37;;;;;;;3.30;2.63;;;5.80;99.90;;;;;;5036812;28;20555;-70
2021/11/17 12:29:16;;;;;;;4.90;3.60;;;5.90;99.90;;;;;;5036603;28;20518;-70
2021/11/17 12:32:32;;;;;;;5.70;3.30;;;5.90;99.90;;;;;;5037767;28;20761;-70
2021/11/17 12:35:40;;;;;;;4.17;3.27;;;5.90;99.90;;;;;;5016469;28;20418;-70
2021/11/17 12:38:09;;;;;;;5.40;3.33;;;5.90;99.90;;;;;;5037586;28;20414;-69
2021/11/17 12:41:10;;;;;;;5.77;2.63;;;6.10;99.90;;;;;;5037668;28;20497;-69
2021/11/17 12:43:43;;;;;;;8.30;3.10;;;6.10;99.90;;;;;;5036191;28;20424;-69
2021/11/17 12:46:38;;;;;;;5.07;2.67;;;6.10;99.90;;;;;;5034015;28;20474;-69
2021/11/17 12:49:29;;;;;;;3.90;2.83;;;6.30;99.90;;;;;;5034515;28;20536;-68
2021/11/17 12:52:20;;;;;;;3.17;2.87;;;6.20;99.90;;;;;;5034537;28;20450;-69
2021/11/17 12:54:51;;;;;;;5.47;3.33;;;6.30;99.90;;;;;;5034339;28;20421;-69
2021/11/17 12:57:21;;;;;;;6.67;4.37;;;6.40;99.90;;;;;;5034491;28;20777;-69
2021/11/17 13:00:11;;;;;;;8.33;2.83;;;6.30;99.90;;;;;;5034182;28;20431;-69
2021/11/17 13:02:51;;;;;;;8.70;2.83;;;6.40;99.90;;;;;;5033080;28;20544;-69
2021/11/17 13:05:22;;;;;;;6.50;3.70;;;6.40;99.90;;;;;;5034150;28;20398;-69
2021/11/17 13:08:00;;;;;;;7.60;3.73;;;6.40;99.90;;;;;;5032979;28;20411;-69
2021/11/17 13:11:04;;;;;;;3.80;2.30;;;6.40;99.90;;;;;;5034115;28;20436;-70
2021/11/17 13:13:51;;;;;;;7.40;3.13;;;6.40;99.90;;;;;;5034209;28;20489;-69
2021/11/17 13:16:25;;;;;;;5.00;2.73;;;6.40;99.90;;;;;;5034347;28;20775;-69
2021/11/17 13:18:54;;;;;;;4.40;3.07;;;6.50;99.90;;;;;;5034088;28;20434;-69
2021/11/17 13:21:23;;;;;;;4.70;2.93;;;6.50;99.90;;;;;;5034071;28;20403;-68
2021/11/17 13:24:09;;;;;;;8.03;3.93;;;6.50;99.90;;;;;;5033971;28;20406;-68
2021/11/17 13:26:49;;;;;;;3.50;2.63;;;6.50;99.90;;;;;;5033835;28;20398;-68
2021/11/17 13:29:45;;;;;;;2.37;2.00;;;6.60;99.90;;;;;;5033777;28;20539;-68
2021/11/17 13:32:13;;;;;;;2.63;2.40;;;6.60;99.90;;;;;;5033693;28;20501;-69
2021/11/17 13:34:46;;;;;;;3.77;2.47;;;6.70;99.90;;;;;;5033674;28;20468;-69
2021/11/17 13:37:38;;;;;;;3.20;2.90;;;6.60;99.90;;;;;;5033627;28;20777;-71
2021/11/17 13:40:17;;;;;;;3.23;2.97;;;6.60;99.90;;;;;;5013934;28;20423;-68
2021/11/17 13:42:43;;;;;;;3.00;2.30;;;6.50;99.90;;;;;;5013820;28;20403;-68
2021/11/17 13:45:13;;;;;;;5.90;2.53;;;6.60;99.90;;;;;;5013772;28;20411;-68
2021/11/17 13:47:39;;;;;;;4.40;3.93;;;6.60;99.90;;;;;;5013629;28;20414;-69
2021/11/17 13:50:07;;;;;;;4.53;2.93;;;6.60;99.90;;;;;;5013355;28;20489;-69
2021/11/17 13:52:35;;;;;;;6.20;2.93;;;6.60;99.90;;;;;;5013503;28;20411;-69
2021/11/17 13:55:04;;;;;;;3.47;2.20;;;6.70;99.90;;;;;;5013511;28;20817;-70
2021/11/17 13:57:30;;;;;;;9.23;4.23;;;6.70;99.90;;;;;;5013880;28;20438;-68
2021/11/17 13:59:56;;;;;;;3.53;2.63;;;6.70;99.90;;;;;;5013585;28;20443;-69
2021/11/17 14:02:22;;;;;;;3.50;3.10;;;6.80;99.90;;;;;;5013287;28;20203;-69
2021/11/17 14:04:47;;;;;;;4.13;2.50;;;6.80;99.90;;;;;;5013349;28;20447;-69
2021/11/17 14:07:19;;;;;;;5.90;3.30;;;6.70;99.90;;;;;;5016184;28;20180;-69
2021/11/17 14:09:44;;;;;;;3.87;2.73;;;6.70;99.90;;;;;;5032645;28;20234;-68
2021/11/17 14:12:10;;;;;;;8.63;3.93;;;6.70;99.90;;;;;;5033121;28;20442;-69
2021/11/17 14:14:37;;;;;;;5.03;3.60;;;6.70;99.90;;;;;;5032942;28;20441;-69
2021/11/17 14:17:04;;;;;;;3.67;2.90;;;6.70;99.90;;;;;;5032808;28;20790;-68
2021/11/17 14:19:30;;;;;;;5.47;3.40;;;6.70;99.90;;;;;;5032638;28;20851;-69
2021/11/17 14:21:57;;;;;;;8.83;2.57;;;6.80;99.90;;;;;;5032854;28;20447;-68
2021/11/17 14:24:23;;;;;;;3.10;2.90;;;6.80;99.90;;;;;;5032794;28;20175;-69
2021/11/17 14:26:50;;;;;;;7.00;3.20;;;6.70;99.90;;;;;;5032726;28;20403;-69
2021/11/17 14:29:26;;;;;;;5.30;3.20;;;6.70;99.90;;;;;;5032498;28;20527;-69
2021/11/17 14:31:56;;;;;;;3.53;3.23;;;6.70;99.90;;;;;;5032704;28;20441;-71
2021/11/17 14:34:23;;;;;;;4.30;2.80;;;6.70;99.90;;;;;;5032491;28;20399;-69
2021/11/17 14:36:52;;;;;;;5.83;3.77;;;6.80;99.90;;;;;;5032656;28;20887;-69
2021/11/17 14:39:22;;;;;;;3.83;3.10;;;6.80;99.90;;;;;;5029523;28;20453;-69
2021/11/17 14:41:50;;;;;;;4.33;3.93;;;6.80;99.90;;;;;;5031370;28;20422;-68
2021/11/17 14:44:21;;;;;;;7.33;3.60;;;6.80;99.90;;;;;;5032593;28;20415;-70
2021/11/17 14:46:47;;;;;;;7.23;3.70;;;6.80;99.90;;;;;;5032650;28;20953;-69
2021/11/17 14:49:12;;;;;;;5.97;3.20;;;6.80;99.90;;;;;;5032708;28;20462;-70
2021/11/17 14:51:41;;;;;;;5.83;3.50;;;7.00;99.90;;;;;;5032497;28;20172;-68
2021/11/17 14:54:07;;;;;;;4.33;3.50;;;6.90;99.90;;;;;;5031921;28;20176;-69
2021/11/17 14:56:33;;;;;;;4.87;3.23;;;6.90;99.90;;;;;;5032120;28;20925;-70
2021/11/17 14:58:59;;;;;;;4.37;3.30;;;6.90;99.90;;;;;;5032435;28;20403;-71
2021/11/17 15:01:32;;;;;;;6.00;3.77;;;6.80;99.90;;;;;;5032262;28;20171;-69
2021/11/17 15:04:04;;;;;;;6.23;2.80;;;6.70;99.90;;;;;;5032490;28;20175;-70
2021/11/17 15:06:34;;;;;;;4.97;3.07;;;6.80;99.90;;;;;;5032360;28;20410;-70
2021/11/17 15:09:00;;;;;;;3.40;2.53;;;6.80;99.90;;;;;;5049073;28;20812;-69
2021/11/17 15:11:27;;;;;;;4.27;3.03;;;6.60;99.90;;;;;;5050811;28;20763;-71
2021/11/17 15:13:59;;;;;;;4.70;2.67;;;6.50;99.90;;;;;;5052125;28;20401;-69
2021/11/17 15:16:27;;;;;;;3.00;2.57;;;6.50;99.90;;;;;;5052126;28;20483;-69
2021/11/17 15:18:56;;;;;;;3.77;3.00;;;6.50;99.90;;;;;;5047499;28;20795;-69
2021/11/17 15:21:21;;;;;;;5.77;3.67;;;6.50;99.90;;;;;;5031928;28;20491;-69
2021/11/17 15:23:47;;;;;;;5.93;3.87;;;6.50;99.90;;;;;;5031732;28;20989;-70
2021/11/17 15:26:16;;;;;;;3.23;2.60;;;6.50;99.90;;;;;;5032074;28;20213;-71
2021/11/17 15:28:48;;;;;;;2.90;2.70;;;6.50;99.90;;;;;;5030340;28;20261;-69
2021/11/17 15:31:20;;;;;;;4.33;2.57;;;6.50;99.90;;;;;;5032632;28;20405;-70
2021/11/17 15:33:46;;;;;;;2.87;2.60;;;6.50;99.90;;;;;;5032369;28;20402;-71
2021/11/17 15:36:14;;;;;;;3.50;3.20;;;6.50;99.90;;;;;;5031904;28;20406;-72
2021/11/17 15:38:42;;;;;;;6.00;3.17;;;6.50;99.90;;;;;;5032104;28;20215;-70
2021/11/17 15:41:13;;;;;;;5.90;2.77;;;6.50;99.90;;;;;;5032404;28;20820;-72
2021/11/17 15:43:39;;;;;;;4.80;3.70;;;6.50;99.90;;;;;;5032786;28;20418;-74
2021/11/17 15:46:04;;;;;;;3.43;2.77;;;6.50;99.90;;;;;;5031909;28;20459;-70
2021/11/17 15:48:35;;;;;;;3.33;2.73;;;6.50;99.90;;;;;;5030448;28;20227;-69
2021/11/17 15:51:09;;;;;;;7.47;3.47;;;6.50;99.90;;;;;;5011878;28;20729;-70
2021/11/17 15:53:34;;;;;;;2.47;2.27;;;6.50;99.90;;;;;;5012135;28;20410;-70
2021/11/17 15:56:04;;;;;;;3.13;2.63;;;6.50;99.90;;;;;;5012269;28;20395;-69
2021/11/17 15:58:30;;;;;;;1.97;1.87;;;6.50;99.90;;;;;;5029540;28;20520;-71
2021/11/17 16:00:56;;;;;;;3.97;2.80;;;6.50;99.90;;;;;;5031629;28;20517;-69
2021/11/17 16:03:22;;;;;;;5.83;3.57;;;6.50;99.90;;;;;;5031942;28;20226;-68
2021/11/17 16:05:48;;;;;;;4.70;3.90;;;6.50;99.90;;;;;;5031945;28;20398;-71
2021/11/17 16:08:15;;;;;;;2.80;2.03;;;6.60;99.90;;;;;;5031519;28;20497;-70
2021/11/17 16:10:42;;;;;;;3.80;3.20;;;6.60;99.90;;;;;;5031634;28;20422;-71